Time;durP1;ratioP1;P1;durP2;ratioP2;P2;SDS_P1;SDS_P2;PMS_P1;PMS_P2;Temp;Humidity;BMP_temperature;BMP_pressure;BME280_temperature;BME280_humidity;BME280_pressure;Samples;Min_cycle;Max_cycle;Signal;HPM_P1;HPM_P2
2024/01/14 00:01:15;;;;;;;;;;;19.40;50.80;;;;;;5013180;28;20296;-61
2024/01/14 00:03:41;;;;;;;;;;;19.40;50.80;;;;;;5012642;28;19925;-62
2024/01/14 00:06:07;;;;;;;;;;;19.40;50.70;;;;;;4995490;28;19926;-61
2024/01/14 00:08:32;;;;;;;;;;;19.40;50.70;;;;;;5013440;28;19926;-61
2024/01/14 00:10:57;;;;;;;;;;;19.40;50.70;;;;;;5012295;28;19933;-61
2024/01/14 00:13:23;;;;;;;;;;;19.40;50.70;;;;;;5013913;28;19925;-61
2024/01/14 00:15:48;;;;;;;;;;;19.30;50.60;;;;;;4997772;28;20015;-61
2024/01/14 00:18:14;;;;;;;;;;;19.30;50.60;;;;;;5052016;28;19925;-61
2024/01/14 00:20:39;;;;;;;;;;;19.30;50.60;;;;;;5026269;28;19973;-61
2024/01/14 00:23:05;;;;;;;;;;;19.30;50.60;;;;;;5026385;28;19931;-61
2024/01/14 00:25:31;;;;;;;;;;;19.30;50.50;;;;;;5052006;28;19925;-61
2024/01/14 00:27:56;;;;;;;;;;;19.30;50.50;;;;;;5052853;28;20490;-61
2024/01/14 00:30:22;;;;;;;;;;;19.30;50.60;;;;;;5034802;28;20006;-61
2024/01/14 00:32:47;;;;;;;;;;;19.30;50.50;;;;;;5052202;28;20399;-61
2024/01/14 00:35:13;;;;;;;;;;;19.30;50.50;;;;;;5052408;28;19933;-61
2024/01/14 00:37:38;;;;;;;;;;;19.20;50.50;;;;;;5053006;28;19947;-61
2024/01/14 00:40:08;;;;;;;;;;;19.20;50.40;;;;;;5051675;28;19932;-61
2024/01/14 00:42:33;;;;;;;;;;;19.20;50.50;;;;;;5052571;28;19990;-61
2024/01/14 00:44:59;;;;;;;;;;;19.20;50.40;;;;;;5046264;28;20377;-61
2024/01/14 00:47:24;;;;;;;;;;;19.20;50.40;;;;;;5035008;28;20387;-61
2024/01/14 00:49:50;;;;;;;;;;;19.20;50.40;;;;;;5036548;28;19972;-61
2024/01/14 00:52:15;;;;;;;;;;;19.10;50.40;;;;;;5035539;28;19932;-61
2024/01/14 00:54:41;;;;;;;;;;;19.10;50.40;;;;;;5011827;28;20361;-61
2024/01/14 00:57:07;;;;;;;;;;;19.10;50.30;;;;;;5026965;28;19983;-61
2024/01/14 00:59:33;;;;;;;;;;;19.10;50.40;;;;;;5036528;28;19952;-61
2024/01/14 01:01:58;;;;;;;;;;;19.10;50.30;;;;;;5017465;28;20372;-61
2024/01/14 01:04:24;;;;;;;;;;;19.10;50.30;;;;;;5018779;28;19933;-61
2024/01/14 01:06:50;;;;;;;;;;;19.10;50.30;;;;;;5018558;28;20012;-62
2024/01/14 01:09:15;;;;;;;;;;;19.10;50.30;;;;;;5035441;28;19972;-61
2024/01/14 01:11:41;;;;;;;;;;;19.00;50.20;;;;;;5036169;28;19967;-61
2024/01/14 01:14:07;;;;;;;;;;;19.00;50.30;;;;;;5035301;28;19921;-61
2024/01/14 01:16:33;;;;;;;;;;;19.00;50.20;;;;;;5035883;28;20611;-61
2024/01/14 01:18:59;;;;;;;;;;;19.00;50.20;;;;;;5031008;28;20308;-61
2024/01/14 01:21:24;;;;;;;;;;;19.00;50.20;;;;;;5034917;28;19921;-61
2024/01/14 01:23:50;;;;;;;;;;;19.00;50.20;;;;;;5035770;28;20014;-61
2024/01/14 01:26:15;;;;;;;;;;;19.00;50.20;;;;;;5035214;28;19926;-61
2024/01/14 01:28:41;;;;;;;;;;;19.00;50.20;;;;;;5017091;28;19979;-61
2024/01/14 01:31:06;;;;;;;;;;;19.00;50.20;;;;;;5017894;28;19925;-61
2024/01/14 01:33:32;;;;;;;;;;;19.00;50.20;;;;;;5034404;28;20457;-61
2024/01/14 01:35:57;;;;;;;;;;;19.00;50.20;;;;;;5034719;28;19929;-61
2024/01/14 01:38:23;;;;;;;;;;;19.00;50.20;;;;;;5035494;28;20288;-61
2024/01/14 01:40:48;;;;;;;;;;;18.90;50.10;;;;;;5017651;28;19972;-61
2024/01/14 01:43:14;;;;;;;;;;;18.90;50.10;;;;;;5034833;28;19968;-61
2024/01/14 01:45:39;;;;;;;;;;;18.90;50.10;;;;;;5035433;28;20385;-61
2024/01/14 01:48:05;;;;;;;;;;;18.90;50.20;;;;;;5035141;28;20012;-61
2024/01/14 01:50:30;;;;;;;;;;;18.90;50.10;;;;;;5019505;28;20774;-61
2024/01/14 01:52:56;;;;;;;;;;;18.90;50.20;;;;;;5019312;28;19948;-61
2024/01/14 01:55:21;;;;;;;;;;;18.90;50.20;;;;;;5035498;28;19933;-61
2024/01/14 01:57:47;;;;;;;;;;;18.90;50.20;;;;;;5016000;28;19925;-61
2024/01/14 02:00:12;;;;;;;;;;;18.90;50.20;;;;;;5035184;28;19994;-61
2024/01/14 02:02:39;;;;;;;;;;;18.90;50.80;;;;;;5017287;28;19925;-61
2024/01/14 02:05:06;;;;;;;;;;;18.90;50.10;;;;;;5016541;28;19929;-61
2024/01/14 02:07:31;;;;;;;;;;;18.80;50.00;;;;;;5017119;28;19932;-61
2024/01/14 02:09:56;;;;;;;;;;;18.90;50.80;;;;;;5016868;28;19925;-61
2024/01/14 02:12:22;;;;;;;;;;;18.90;50.10;;;;;;5000054;28;19929;-61
2024/01/14 02:14:47;;;;;;;;;;;18.90;50.10;;;;;;5017267;28;19936;-61
2024/01/14 02:17:13;;;;;;;;;;;18.90;50.10;;;;;;5016328;28;20435;-61
2024/01/14 02:19:38;;;;;;;;;;;18.90;50.00;;;;;;5034836;28;19929;-61
2024/01/14 02:22:08;;;;;;;;;;;18.90;50.10;;;;;;5034325;28;20327;-61
2024/01/14 02:24:33;;;;;;;;;;;18.90;50.10;;;;;;5033438;28;19936;-61
2024/01/14 02:26:59;;;;;;;;;;;18.90;50.10;;;;;;5000345;28;19929;-61
2024/01/14 02:29:27;;;;;;;;;;;18.90;50.00;;;;;;5034871;28;19925;-61
2024/01/14 02:31:52;;;;;;;;;;;18.90;50.00;;;;;;5016007;28;19929;-61
2024/01/14 02:34:18;;;;;;;;;;;18.90;50.00;;;;;;5034792;28;19979;-61
2024/01/14 02:36:43;;;;;;;;;;;18.90;50.00;;;;;;5034465;28;20011;-61
2024/01/14 02:39:09;;;;;;;;;;;18.90;50.00;;;;;;5033639;28;19925;-61
2024/01/14 02:41:34;;;;;;;;;;;18.90;50.00;;;;;;5034704;28;19972;-61
2024/01/14 02:44:00;;;;;;;;;;;18.90;50.00;;;;;;5034149;28;19925;-61
2024/01/14 02:46:26;;;;;;;;;;;18.90;50.00;;;;;;5039743;28;20019;-61
2024/01/14 02:48:51;;;;;;;;;;;18.90;50.00;;;;;;5033814;28;19947;-61
2024/01/14 02:51:17;;;;;;;;;;;18.90;50.00;;;;;;5019480;28;19925;-61
2024/01/14 02:53:42;;;;;;;;;;;18.90;50.00;;;;;;5033186;28;19929;-61
2024/01/14 02:56:08;;;;;;;;;;;18.90;50.00;;;;;;5016172;28;19948;-61
2024/01/14 02:58:34;;;;;;;;;;;18.90;50.00;;;;;;5032850;28;19925;-61
2024/01/14 03:00:59;;;;;;;;;;;18.90;50.00;;;;;;5032603;28;20016;-61
2024/01/14 03:03:25;;;;;;;;;;;18.90;50.00;;;;;;5033805;28;19948;-61
2024/01/14 03:05:50;;;;;;;;;;;18.90;50.00;;;;;;5033698;28;20023;-61
2024/01/14 03:08:17;;;;;;;;;;;18.90;50.00;;;;;;5014835;28;19925;-61
2024/01/14 03:10:43;;;;;;;;;;;19.00;50.00;;;;;;5015687;28;20366;-61
2024/01/14 03:13:09;;;;;;;;;;;19.00;50.00;;;;;;5015752;28;20015;-61
2024/01/14 03:15:34;;;;;;;;;;;19.00;50.00;;;;;;5032914;28;20026;-61
2024/01/14 03:18:00;;;;;;;;;;;19.00;50.00;;;;;;5015973;28;20324;-61
2024/01/14 03:20:25;;;;;;;;;;;19.00;50.00;;;;;;5033872;28;19932;-61
2024/01/14 03:22:51;;;;;;;;;;;19.00;50.00;;;;;;5014979;28;19925;-61
2024/01/14 03:25:16;;;;;;;;;;;19.00;50.00;;;;;;5012822;28;19937;-61
2024/01/14 03:27:42;;;;;;;;;;;19.00;49.90;;;;;;5013209;28;19979;-61
2024/01/14 03:30:07;;;;;;;;;;;19.00;50.60;;;;;;5013637;28;19937;-61
2024/01/14 03:32:33;;;;;;;;;;;19.00;49.90;;;;;;5013742;28;19933;-61
2024/01/14 03:34:58;;;;;;;;;;;19.00;50.00;;;;;;5011621;28;19921;-61
2024/01/14 03:37:24;;;;;;;;;;;19.00;49.90;;;;;;5000729;28;19925;-61
2024/01/14 03:39:49;;;;;;;;;;;19.00;49.90;;;;;;4994128;28;20024;-61
2024/01/14 03:42:15;;;;;;;;;;;19.00;49.80;;;;;;4993145;28;20025;-61
2024/01/14 03:44:41;;;;;;;;;;;19.10;49.90;;;;;;4993794;28;19925;-61
2024/01/14 03:47:07;;;;;;;;;;;19.00;49.90;;;;;;4993566;28;19964;-61
2024/01/14 03:49:33;;;;;;;;;;;19.10;49.90;;;;;;4993283;28;19930;-62
2024/01/14 03:51:58;;;;;;;;;;;19.10;49.90;;;;;;4992074;28;19926;-61
2024/01/14 03:54:23;;;;;;;;;;;19.10;49.90;;;;;;4993256;28;19926;-61
2024/01/14 03:56:49;;;;;;;;;;;19.10;49.80;;;;;;4992968;28;19937;-61
2024/01/14 03:59:14;;;;;;;;;;;19.10;49.90;;;;;;4993739;28;20420;-61
2024/01/14 04:01:40;;;;;;;;;;;19.10;49.80;;;;;;4993060;28;20416;-61
2024/01/14 04:04:06;;;;;;;;;;;19.20;49.90;;;;;;4973334;28;20382;-61
2024/01/14 04:06:31;;;;;;;;;;;19.20;49.90;;;;;;4974125;28;19929;-61
2024/01/14 04:08:57;;;;;;;;;;;19.20;49.90;;;;;;4992252;28;19972;-61
2024/01/14 04:11:22;;;;;;;;;;;19.20;49.80;;;;;;4991900;28;20309;-61
2024/01/14 04:13:48;;;;;;;;;;;19.20;49.80;;;;;;4993662;28;19926;-61
2024/01/14 04:16:14;;;;;;;;;;;19.20;49.80;;;;;;4992790;28;19926;-61
2024/01/14 04:18:39;;;;;;;;;;;19.30;49.90;;;;;;4992591;28;20369;-61
2024/01/14 04:21:05;;;;;;;;;;;19.20;49.80;;;;;;4993666;28;19933;-61
2024/01/14 04:23:30;;;;;;;;;;;19.30;49.80;;;;;;4997878;28;20386;-62
2024/01/14 04:25:56;;;;;;;;;;;19.30;49.80;;;;;;5019869;28;20011;-61
2024/01/14 04:28:21;;;;;;;;;;;19.30;49.80;;;;;;5037094;28;19932;-61
2024/01/14 04:30:51;;;;;;;;;;;19.30;49.80;;;;;;5035789;28;20294;-61
2024/01/14 04:33:16;;;;;;;;;;;19.30;49.80;;;;;;5036995;28;20363;-61
2024/01/14 04:35:42;;;;;;;;;;;19.30;49.80;;;;;;5037215;28;20340;-61
2024/01/14 04:38:07;;;;;;;;;;;19.40;49.80;;;;;;5017765;28;19925;-61
2024/01/14 04:40:33;;;;;;;;;;;19.40;49.80;;;;;;5036951;28;19933;-61
2024/01/14 04:42:58;;;;;;;;;;;19.40;49.80;;;;;;5018821;28;19963;-61
2024/01/14 04:45:24;;;;;;;;;;;19.40;49.80;;;;;;5035834;28;19925;-61
2024/01/14 04:47:49;;;;;;;;;;;19.40;49.80;;;;;;5018923;28;19925;-61
2024/01/14 04:50:15;;;;;;;;;;;19.40;49.80;;;;;;5036399;28;19925;-61
2024/01/14 04:52:40;;;;;;;;;;;19.40;49.80;;;;;;5035778;28;20441;-61
2024/01/14 04:55:06;;;;;;;;;;;19.50;49.80;;;;;;5015565;28;19926;-61
2024/01/14 04:57:31;;;;;;;;;;;19.50;49.80;;;;;;5003386;28;20395;-61
2024/01/14 04:59:57;;;;;;;;;;;19.50;49.80;;;;;;5035246;28;20320;-61
2024/01/14 05:02:22;;;;;;;;;;;19.50;49.80;;;;;;5008613;28;19929;-61
2024/01/14 05:04:48;;;;;;;;;;;19.50;49.80;;;;;;5035498;28;19929;-61
2024/01/14 05:07:13;;;;;;;;;;;19.50;49.80;;;;;;5017468;28;20688;-61
2024/01/14 05:09:39;;;;;;;;;;;19.50;49.80;;;;;;5035957;28;19925;-61
2024/01/14 05:12:04;;;;;;;;;;;19.50;49.70;;;;;;5018162;28;19925;-61
2024/01/14 05:14:30;;;;;;;;;;;19.50;49.80;;;;;;5034954;28;19929;-61
2024/01/14 05:16:55;;;;;;;;;;;19.50;49.70;;;;;;5035964;28;19968;-61
2024/01/14 05:19:21;;;;;;;;;;;19.50;49.70;;;;;;5018707;28;20023;-61
2024/01/14 05:21:46;;;;;;;;;;;19.60;49.70;;;;;;5035159;28;19932;-61
2024/01/14 05:24:12;;;;;;;;;;;19.60;50.40;;;;;;5035497;28;20365;-61
2024/01/14 05:26:40;;;;;;;;;;;19.60;49.70;;;;;;5018059;28;19925;-61
2024/01/14 05:29:06;;;;;;;;;;;19.60;49.70;;;;;;5034853;28;20018;-61
2024/01/14 05:31:31;;;;;;;;;;;19.60;49.70;;;;;;5018381;28;19964;-61
2024/01/14 05:33:57;;;;;;;;;;;19.60;49.70;;;;;;5017849;28;19925;-61
2024/01/14 05:36:22;;;;;;;;;;;19.60;49.70;;;;;;5034893;28;19925;-61
2024/01/14 05:38:48;;;;;;;;;;;19.60;49.70;;;;;;5035291;28;20401;-61
2024/01/14 05:41:13;;;;;;;;;;;19.60;49.60;;;;;;5034378;28;19929;-61
2024/01/14 05:43:39;;;;;;;;;;;19.60;49.60;;;;;;5035694;28;19932;-61
2024/01/14 05:46:04;;;;;;;;;;;19.60;49.60;;;;;;5017672;28;19987;-61
2024/01/14 05:48:30;;;;;;;;;;;19.60;49.60;;;;;;5034542;28;19976;-61
2024/01/14 05:50:55;;;;;;;;;;;19.60;49.60;;;;;;5035086;28;20373;-61
2024/01/14 05:53:21;;;;;;;;;;;19.60;49.60;;;;;;5017859;28;19925;-61
2024/01/14 05:55:46;;;;;;;;;;;19.60;49.50;;;;;;5034824;28;19932;-61
2024/01/14 05:58:11;;;;;;;;;;;19.60;49.50;;;;;;5017336;28;19987;-61
2024/01/14 06:00:37;;;;;;;;;;;19.60;49.60;;;;;;5035502;28;20343;-61
2024/01/14 06:03:03;;;;;;;;;;;19.60;49.50;;;;;;5034316;28;19925;-61
2024/01/14 06:05:28;;;;;;;;;;;19.60;49.50;;;;;;5035452;28;19933;-61
2024/01/14 06:07:54;;;;;;;;;;;19.60;49.50;;;;;;5034753;28;19936;-61
2024/01/14 06:10:19;;;;;;;;;;;19.60;49.50;;;;;;5016623;28;20277;-61
2024/01/14 06:12:45;;;;;;;;;;;19.60;49.50;;;;;;5034545;28;19931;-61
2024/01/14 06:15:10;;;;;;;;;;;19.60;49.50;;;;;;5016964;28;20297;-61
2024/01/14 06:17:36;;;;;;;;;;;19.60;49.40;;;;;;5034405;28;20003;-61
2024/01/14 06:20:03;;;;;;;;;;;19.60;49.40;;;;;;5049413;28;20012;-61
2024/01/14 06:22:29;;;;;;;;;;;19.70;49.50;;;;;;5054752;28;20361;-61
2024/01/14 06:24:55;;;;;;;;;;;19.70;49.50;;;;;;5034629;28;20015;-61
2024/01/14 06:27:20;;;;;;;;;;;19.70;49.50;;;;;;5034730;28;20039;-61
2024/01/14 06:29:46;;;;;;;;;;;19.70;49.50;;;;;;5034608;28;19932;-61
2024/01/14 06:32:11;;;;;;;;;;;19.70;49.50;;;;;;5033696;28;20446;-61
2024/01/14 06:34:36;;;;;;;;;;;19.70;49.50;;;;;;5034751;28;19961;-61
2024/01/14 06:37:03;;;;;;;;;;;19.70;49.50;;;;;;5034043;28;19925;-61
2024/01/14 06:39:28;;;;;;;;;;;19.70;49.40;;;;;;5033955;28;20011;-61
2024/01/14 06:41:54;;;;;;;;;;;19.70;49.50;;;;;;5034427;28;20331;-61
2024/01/14 06:44:19;;;;;;;;;;;19.70;49.40;;;;;;5016336;28;19979;-61
2024/01/14 06:46:45;;;;;;;;;;;19.70;49.40;;;;;;5029171;28;19975;-61
2024/01/14 06:49:10;;;;;;;;;;;19.70;49.40;;;;;;5030274;28;20419;-61
2024/01/14 06:51:43;;;;;;;;;;;19.70;49.40;;;;;;5033690;28;20277;-61
2024/01/14 06:54:08;;;;;;;;;;;19.70;49.40;;;;;;5033748;28;20376;-61
2024/01/14 06:56:34;;;;;;;;;;;19.70;49.30;;;;;;5034261;28;19984;-61
2024/01/14 06:58:59;;;;;;;;;;;19.70;49.40;;;;;;5015228;28;19929;-61
2024/01/14 07:01:24;;;;;;;;;;;19.70;49.40;;;;;;5033971;28;19925;-61
2024/01/14 07:03:50;;;;;;;;;;;19.70;49.30;;;;;;5034281;28;19925;-61
2024/01/14 07:06:15;;;;;;;;;;;19.70;49.40;;;;;;5033154;28;19923;-61
2024/01/14 07:08:42;;;;;;;;;;;19.70;49.30;;;;;;5018771;28;19968;-61
2024/01/14 07:11:08;;;;;;;;;;;19.70;49.30;;;;;;5035500;28;19956;-61
2024/01/14 07:13:33;;;;;;;;;;;19.70;49.30;;;;;;5047828;28;19971;-61
2024/01/14 07:15:59;;;;;;;;;;;19.70;49.30;;;;;;5012653;28;19951;-61
2024/01/14 07:18:24;;;;;;;;;;;19.70;49.30;;;;;;4999867;28;19932;-61
2024/01/14 07:20:50;;;;;;;;;;;19.70;49.30;;;;;;5033199;28;19929;-61
2024/01/14 07:23:15;;;;;;;;;;;19.70;49.30;;;;;;5033480;28;20327;-61
2024/01/14 07:25:41;;;;;;;;;;;19.70;49.30;;;;;;5015724;28;19932;-61
2024/01/14 07:28:06;;;;;;;;;;;19.70;49.30;;;;;;5032821;28;20373;-61
2024/01/14 07:30:32;;;;;;;;;;;19.70;49.30;;;;;;5033515;28;19925;-61
2024/01/14 07:32:57;;;;;;;;;;;19.70;49.30;;;;;;5033278;28;19925;-61
2024/01/14 07:35:23;;;;;;;;;;;19.70;49.20;;;;;;5015024;28;20032;-61
2024/01/14 07:37:48;;;;;;;;;;;19.70;49.30;;;;;;5052769;28;20292;-61
2024/01/14 07:40:14;;;;;;;;;;;19.70;49.20;;;;;;5035519;28;19929;-61
2024/01/14 07:42:39;;;;;;;;;;;19.70;49.20;;;;;;5014926;28;19925;-61
2024/01/14 07:45:07;;;;;;;;;;;19.70;49.20;;;;;;5033233;28;19952;-61
2024/01/14 07:47:32;;;;;;;;;;;19.80;50.00;;;;;;5015533;28;19932;-62
2024/01/14 07:49:58;;;;;;;;;;;19.70;49.30;;;;;;5032880;28;19925;-62
2024/01/14 07:52:25;;;;;;;;;;;19.80;49.30;;;;;;5032971;28;19925;-62
2024/01/14 07:54:50;;;;;;;;;;;19.70;49.30;;;;;;5031745;28;19929;-63
2024/01/14 07:57:16;;;;;;;;;;;19.80;49.40;;;;;;5011407;28;19962;-61
2024/01/14 07:59:41;;;;;;;;;;;19.80;50.30;;;;;;5015089;28;19929;-60
2024/01/14 08:02:07;;;;;;;;;;;19.80;49.70;;;;;;5032292;28;20376;-63
2024/01/14 08:04:33;;;;;;;;;;;19.80;49.80;;;;;;5032854;28;20024;-63
2024/01/14 08:06:58;;;;;;;;;;;19.80;49.90;;;;;;5032323;28;19932;-63
2024/01/14 08:09:24;;;;;;;;;;;19.80;49.90;;;;;;5032055;28;19936;-62
2024/01/14 08:11:49;;;;;;;;;;;19.80;50.00;;;;;;5033150;28;20312;-63
2024/01/14 08:14:15;;;;;;;;;;;19.80;50.00;;;;;;5032604;28;19926;-62
2024/01/14 08:16:40;;;;;;;;;;;19.80;50.10;;;;;;5032350;28;19932;-62
2024/01/14 08:19:06;;;;;;;;;;;19.80;50.20;;;;;;5015235;28;19925;-62
2024/01/14 08:21:31;;;;;;;;;;;19.80;50.20;;;;;;5032746;28;20265;-64
2024/01/14 08:23:57;;;;;;;;;;;19.90;50.20;;;;;;5014327;28;20388;-63
2024/01/14 08:26:23;;;;;;;;;;;19.80;50.30;;;;;;5015203;28;20012;-64
2024/01/14 08:28:48;;;;;;;;;;;19.80;50.40;;;;;;5032942;28;20012;-64
2024/01/14 08:31:14;;;;;;;;;;;19.90;50.60;;;;;;5031730;28;20427;-64
2024/01/14 08:33:42;;;;;;;;;;;19.90;50.60;;;;;;5032953;28;19925;-64
2024/01/14 08:36:08;;;;;;;;;;;19.90;50.60;;;;;;5015237;28;19933;-64
2024/01/14 08:38:34;;;;;;;;;;;19.80;50.60;;;;;;5014293;28;19952;-64
2024/01/14 08:41:00;;;;;;;;;;;19.90;50.70;;;;;;5032580;28;20023;-64
2024/01/14 08:43:25;;;;;;;;;;;19.90;50.70;;;;;;5032922;28;20329;-65
2024/01/14 08:45:51;;;;;;;;;;;19.90;50.70;;;;;;5031743;28;19956;-64
2024/01/14 08:48:16;;;;;;;;;;;19.90;50.80;;;;;;5015433;28;19948;-64
2024/01/14 08:50:42;;;;;;;;;;;19.90;50.70;;;;;;5014956;28;20380;-65
2024/01/14 08:53:07;;;;;;;;;;;19.90;50.70;;;;;;5031617;28;19925;-65
2024/01/14 08:55:33;;;;;;;;;;;19.90;50.80;;;;;;5032749;28;20469;-65
2024/01/14 08:57:59;;;;;;;;;;;20.00;50.80;;;;;;5014923;28;20024;-64
2024/01/14 09:00:25;;;;;;;;;;;20.00;50.80;;;;;;5013962;28;19928;-65
2024/01/14 09:02:50;;;;;;;;;;;19.90;50.80;;;;;;5032791;28;19925;-64
2024/01/14 09:05:16;;;;;;;;;;;20.00;50.90;;;;;;5031352;28;19933;-62
2024/01/14 09:07:42;;;;;;;;;;;20.00;50.90;;;;;;5034062;28;20004;-64
2024/01/14 09:10:07;;;;;;;;;;;20.00;50.90;;;;;;5018088;28;19926;-65
2024/01/14 09:12:33;;;;;;;;;;;20.00;50.90;;;;;;5017718;28;19925;-65
2024/01/14 09:14:58;;;;;;;;;;;20.00;50.90;;;;;;5017912;28;19967;-64
2024/01/14 09:17:24;;;;;;;;;;;20.00;50.90;;;;;;5018686;28;19941;-64
2024/01/14 09:19:49;;;;;;;;;;;20.00;51.10;;;;;;5035344;28;19978;-64
2024/01/14 09:22:15;;;;;;;;;;;20.00;51.10;;;;;;5017355;28;20012;-64
2024/01/14 09:24:45;;;;;;;;;;;20.00;51.20;;;;;;5018102;28;19932;-62
2024/01/14 09:27:10;;;;;;;;;;;20.00;51.10;;;;;;5034666;28;19925;-63
2024/01/14 09:29:36;;;;;;;;;;;20.00;50.90;;;;;;5035225;28;19932;-64
2024/01/14 09:32:01;;;;;;;;;;;20.00;50.90;;;;;;5033234;28;19925;-61
2024/01/14 09:34:27;;;;;;;;;;;20.00;50.90;;;;;;5002022;28;19929;-62
2024/01/14 09:36:52;;;;;;;;;;;20.00;50.90;;;;;;4998082;28;19930;-62
2024/01/14 09:39:18;;;;;;;;;;;20.00;50.80;;;;;;5016268;28;19931;-62
2024/01/14 09:42:02;;;;;;;;;;;20.00;50.80;;;;;;4997833;28;20016;-62
2024/01/14 09:44:28;;;;;;;;;;;20.00;50.70;;;;;;5016170;28;19932;-62
2024/01/14 09:46:54;;;;;;;;;;;20.00;50.70;;;;;;5015659;28;19925;-63
2024/01/14 09:49:19;;;;;;;;;;;20.00;50.70;;;;;;4997632;28;20012;-62
2024/01/14 09:51:45;;;;;;;;;;;20.00;50.60;;;;;;5015600;28;19925;-62
2024/01/14 09:54:11;;;;;;;;;;;20.00;50.60;;;;;;5015757;28;19929;-62
2024/01/14 09:56:37;;;;;;;;;;;20.00;50.60;;;;;;5014811;28;20020;-62
2024/01/14 09:59:03;;;;;;;;;;;19.90;50.50;;;;;;4998088;28;19925;-62
2024/01/14 10:01:31;;;;;;;;;;;19.90;50.50;;;;;;5030441;28;19925;-62
2024/01/14 10:04:03;;;;;;;;;;;19.90;50.40;;;;;;5034702;28;19925;-62
2024/01/14 10:06:29;;;;;;;;;;;19.90;50.40;;;;;;5016998;28;19925;-63
2024/01/14 10:08:55;;;;;;;;;;;19.90;50.40;;;;;;5033982;28;19929;-62
2024/01/14 10:11:20;;;;;;;;;;;19.90;50.40;;;;;;5014510;28;19925;-61
2024/01/14 10:13:46;;;;;;;;;;;19.90;50.40;;;;;;5035017;28;19933;-62
2024/01/14 10:16:12;;;;;;;;;;;19.90;50.50;;;;;;5015932;28;20019;-62
2024/01/14 10:18:37;;;;;;;;;;;19.90;50.50;;;;;;5016555;28;19980;-62
2024/01/14 10:21:03;;;;;;;;;;;19.90;50.30;;;;;;5034706;28;19926;-62
2024/01/14 10:23:28;;;;;;;;;;;19.90;50.40;;;;;;5034142;28;19925;-63
2024/01/14 10:25:54;;;;;;;;;;;19.90;50.50;;;;;;5017023;28;19929;-63
2024/01/14 10:28:19;;;;;;;;;;;19.90;50.60;;;;;;5034946;28;19932;-63
2024/01/14 10:30:45;;;;;;;;;;;19.90;50.70;;;;;;5034108;28;19972;-63
2024/01/14 10:33:10;;;;;;;;;;;19.90;50.70;;;;;;5034499;28;20837;-63
2024/01/14 10:35:37;;;;;;;;;;;19.90;50.60;;;;;;5017365;28;20012;-62
2024/01/14 10:38:02;;;;;;;;;;;19.90;50.70;;;;;;5016188;28;20392;-62
2024/01/14 10:40:28;;;;;;;;;;;19.90;50.70;;;;;;5017170;28;19921;-66
2024/01/14 10:42:53;;;;;;;;;;;19.90;50.80;;;;;;5016869;28;19932;-69
2024/01/14 10:45:19;;;;;;;;;;;19.90;51.10;;;;;;5033603;28;19925;-67
2024/01/14 10:47:48;;;;;;;;;;;19.90;51.20;;;;;;5034835;28;19925;-65
2024/01/14 10:50:17;;;;;;;;;;;19.90;51.30;;;;;;5015598;28;20024;-64
2024/01/14 10:52:45;;;;;;;;;;;19.90;50.90;;;;;;5011647;28;19929;-67
2024/01/14 10:55:19;;;;;;;;;;;19.90;51.10;;;;;;5016115;28;19932;-67
2024/01/14 10:57:44;;;;;;;;;;;19.90;51.20;;;;;;5004903;28;20261;-66
2024/01/14 11:00:10;;;;;;;;;;;19.90;51.20;;;;;;5033728;28;19932;-66
2024/01/14 11:02:36;;;;;;;;;;;19.90;51.30;;;;;;4999791;28;20374;-65
2024/01/14 11:05:03;;;;;;;;;;;19.90;51.30;;;;;;5033299;28;19937;-66
2024/01/14 11:07:29;;;;;;;;;;;19.90;51.40;;;;;;5016373;28;19967;-66
2024/01/14 11:09:54;;;;;;;;;;;19.90;52.10;;;;;;5033756;28;20392;-67
2024/01/14 11:12:23;;;;;;;;;;;19.90;51.30;;;;;;5015765;28;19926;-67
2024/01/14 11:14:48;;;;;;;;;;;19.90;51.50;;;;;;5016228;28;19968;-67
2024/01/14 11:17:34;;;;;;;;;;;19.90;51.40;;;;;;5033677;28;20006;-67
2024/01/14 11:20:00;;;;;;;;;;;19.90;51.50;;;;;;4982397;28;19932;-67
2024/01/14 11:22:26;;;;;;;;;;;19.90;51.50;;;;;;5015787;28;19933;-67
2024/01/14 11:24:52;;;;;;;;;;;19.90;51.50;;;;;;5031627;28;19933;-67
2024/01/14 11:27:18;;;;;;;;;;;19.90;51.60;;;;;;5032751;28;20388;-67
2024/01/14 11:29:43;;;;;;;;;;;19.90;51.50;;;;;;5051878;28;19931;-68
2024/01/14 11:32:09;;;;;;;;;;;19.90;51.60;;;;;;5053131;28;19925;-67
2024/01/14 11:34:46;;;;;;;;;;;19.90;51.50;;;;;;5032574;28;19932;-66
2024/01/14 11:37:34;;;;;;;;;;;19.90;51.60;;;;;;5015219;28;19929;-67
2024/01/14 11:40:06;;;;;;;;;;;19.90;51.60;;;;;;5012619;28;20008;-68
2024/01/14 11:42:32;;;;;;;;;;;19.90;51.50;;;;;;5016154;28;19925;-67
2024/01/14 11:44:59;;;;;;;;;;;19.90;51.60;;;;;;5032972;28;19921;-70
2024/01/14 11:47:45;;;;;;;;;;;19.90;51.60;;;;;;5035045;28;19929;-71
2024/01/14 11:50:11;;;;;;;;;;;19.90;51.60;;;;;;5035628;28;19980;-69
2024/01/14 11:52:36;;;;;;;;;;;19.90;51.40;;;;;;5015497;28;19972;-68
2024/01/14 11:55:05;;;;;;;;;;;19.90;51.40;;;;;;5032170;28;19928;-69
2024/01/14 11:57:31;;;;;;;;;;;19.90;51.50;;;;;;5033162;28;19932;-68
2024/01/14 11:59:57;;;;;;;;;;;19.90;51.50;;;;;;5032823;28;19932;-68
2024/01/14 12:02:22;;;;;;;;;;;19.90;51.50;;;;;;5015074;28;19921;-68
2024/01/14 12:04:47;;;;;;;;;;;19.90;51.50;;;;;;5033219;28;19980;-68
2024/01/14 12:07:19;;;;;;;;;;;19.90;51.60;;;;;;5033024;28;20008;-69
2024/01/14 12:09:51;;;;;;;;;;;19.90;51.50;;;;;;5015039;28;19972;-70
2024/01/14 12:12:16;;;;;;;;;;;19.90;51.60;;;;;;5015538;28;19926;-69
2024/01/14 12:14:42;;;;;;;;;;;19.90;51.50;;;;;;5011990;28;19972;-66
2024/01/14 12:17:10;;;;;;;;;;;19.80;51.40;;;;;;5012750;28;20012;-67
2024/01/14 12:19:36;;;;;;;;;;;19.80;51.40;;;;;;5013411;28;19925;-68
2024/01/14 12:22:01;;;;;;;;;;;19.80;51.40;;;;;;5012914;28;19925;-68
2024/01/14 12:24:30;;;;;;;;;;;19.80;51.50;;;;;;4995656;28;19925;-68
2024/01/14 12:26:58;;;;;;;;;;;19.80;51.50;;;;;;4995226;28;19933;-68
2024/01/14 12:29:24;;;;;;;;;;;19.80;51.50;;;;;;4995938;28;20750;-68
2024/01/14 12:31:49;;;;;;;;;;;19.80;51.40;;;;;;5015284;28;19968;-67
2024/01/14 12:34:15;;;;;;;;;;;19.80;51.50;;;;;;5014177;28;19960;-66
2024/01/14 12:36:40;;;;;;;;;;;19.80;51.60;;;;;;5032164;28;19975;-66
2024/01/14 12:39:06;;;;;;;;;;;19.80;51.60;;;;;;5032658;28;20023;-65
2024/01/14 12:41:32;;;;;;;;;;;19.80;51.60;;;;;;5026187;28;19932;-69
2024/01/14 12:43:58;;;;;;;;;;;19.80;51.80;;;;;;5033521;28;19925;-69
2024/01/14 12:46:23;;;;;;;;;;;19.80;51.80;;;;;;5036547;28;19926;-70
2024/01/14 12:48:49;;;;;;;;;;;19.80;51.80;;;;;;5018424;28;19925;-70
2024/01/14 12:51:20;;;;;;;;;;;19.80;51.80;;;;;;5035209;28;19929;-70
2024/01/14 12:53:52;;;;;;;;;;;19.80;51.90;;;;;;5018370;28;19961;-70
2024/01/14 12:56:17;;;;;;;;;;;19.90;51.90;;;;;;5034178;28;19935;-70
2024/01/14 12:58:44;;;;;;;;;;;19.90;52.00;;;;;;5035447;28;19925;-68
2024/01/14 13:01:10;;;;;;;;;;;19.90;52.00;;;;;;5035786;28;19948;-68
2024/01/14 13:03:38;;;;;;;;;;;19.90;52.00;;;;;;5036310;28;19933;-70
2024/01/14 13:06:04;;;;;;;;;;;19.90;52.00;;;;;;5034860;28;19939;-69
2024/01/14 13:08:30;;;;;;;;;;;19.80;52.00;;;;;;5035828;28;19971;-69
2024/01/14 13:10:56;;;;;;;;;;;19.90;52.00;;;;;;5035572;28;20037;-69
2024/01/14 13:13:22;;;;;;;;;;;19.90;52.00;;;;;;5035160;28;20441;-69
2024/01/14 13:15:47;;;;;;;;;;;19.90;52.00;;;;;;5017542;28;20403;-69
2024/01/14 13:18:13;;;;;;;;;;;19.90;52.00;;;;;;5015568;28;19926;-68
2024/01/14 13:20:38;;;;;;;;;;;19.90;52.00;;;;;;5000681;28;19960;-68
2024/01/14 13:23:04;;;;;;;;;;;19.80;52.70;;;;;;5035365;28;20377;-67
2024/01/14 13:25:29;;;;;;;;;;;19.90;52.00;;;;;;5034648;28;19925;-68
2024/01/14 13:27:56;;;;;;;;;;;19.90;52.10;;;;;;5035755;28;19929;-68
2024/01/14 13:30:24;;;;;;;;;;;19.90;52.10;;;;;;5035432;28;19948;-64
2024/01/14 13:32:54;;;;;;;;;;;19.90;52.00;;;;;;5034540;28;19948;-64
2024/01/14 13:35:19;;;;;;;;;;;19.80;52.10;;;;;;5035469;28;19969;-65
2024/01/14 13:37:45;;;;;;;;;;;19.80;52.10;;;;;;5017691;28;19976;-66
2024/01/14 13:40:11;;;;;;;;;;;19.90;52.10;;;;;;5034726;28;19928;-65
2024/01/14 13:42:37;;;;;;;;;;;19.90;52.20;;;;;;5017779;28;19926;-65
2024/01/14 13:45:03;;;;;;;;;;;19.80;52.00;;;;;;5035337;28;19990;-65
2024/01/14 13:47:28;;;;;;;;;;;19.90;52.20;;;;;;5035222;28;19948;-65
2024/01/14 13:49:53;;;;;;;;;;;19.90;52.20;;;;;;5017715;28;19929;-64
2024/01/14 13:52:19;;;;;;;;;;;19.90;52.20;;;;;;5035776;28;20281;-65
2024/01/14 13:54:45;;;;;;;;;;;19.90;52.20;;;;;;5033528;28;19932;-65
2024/01/14 13:57:10;;;;;;;;;;;19.90;52.20;;;;;;5035347;28;19925;-67
2024/01/14 13:59:37;;;;;;;;;;;19.90;52.20;;;;;;5035382;28;19932;-65
2024/01/14 14:02:03;;;;;;;;;;;19.90;52.10;;;;;;5035098;28;19932;-67
2024/01/14 14:04:28;;;;;;;;;;;19.90;52.10;;;;;;5035625;28;19925;-67
2024/01/14 14:06:54;;;;;;;;;;;19.90;52.40;;;;;;5034964;28;19931;-66
2024/01/14 14:09:19;;;;;;;;;;;19.90;52.50;;;;;;5016899;28;19932;-66